sensor_id;sensor_type;location;lat;lon;timestamp;P1;durP1;ratioP1;P2;durP2;ratioP2
16577;SDS011;8401;52.528;13.340;2023-05-23T00:00:39;9.23;;;4.38;;
16577;SDS011;8401;52.528;13.340;2023-05-23T00:03:06;6.90;;;3.90;;
16577;SDS011;8401;52.528;13.340;2023-05-23T00:05:32;5.10;;;3.60;;
16577;SDS011;8401;52.528;13.340;2023-05-23T00:07:59;5.40;;;3.77;;
16577;SDS011;8401;52.528;13.340;2023-05-23T00:10:25;5.80;;;3.70;;
16577;SDS011;8401;52.528;13.340;2023-05-23T00:12:51;5.00;;;3.70;;
16577;SDS011;8401;52.528;13.340;2023-05-23T00:15:17;5.50;;;3.90;;
16577;SDS011;8401;52.528;13.340;2023-05-23T00:17:43;6.90;;;4.10;;
16577;SDS011;8401;52.528;13.340;2023-05-23T00:20:09;7.03;;;4.47;;
16577;SDS011;8401;52.528;13.340;2023-05-23T00:22:38;6.67;;;4.80;;
16577;SDS011;8401;52.528;13.340;2023-05-23T00:25:07;4.80;;;3.77;;
16577;SDS011;8401;52.528;13.340;2023-05-23T00:27:33;5.43;;;4.00;;
16577;SDS011;8401;52.528;13.340;2023-05-23T00:29:59;5.10;;;3.80;;
16577;SDS011;8401;52.528;13.340;2023-05-23T00:32:25;6.03;;;4.03;;
16577;SDS011;8401;52.528;13.340;2023-05-23T00:34:51;4.80;;;3.90;;
16577;SDS011;8401;52.528;13.340;2023-05-23T00:37:18;4.17;;;3.77;;
16577;SDS011;8401;52.528;13.340;2023-05-23T00:39:44;4.37;;;3.63;;
16577;SDS011;8401;52.528;13.340;2023-05-23T00:42:10;6.37;;;3.57;;
16577;SDS011;8401;52.528;13.340;2023-05-23T00:44:35;6.53;;;4.27;;
16577;SDS011;8401;52.528;13.340;2023-05-23T00:47:01;4.83;;;3.57;;
16577;SDS011;8401;52.528;13.340;2023-05-23T00:49:27;5.73;;;4.00;;
16577;SDS011;8401;52.528;13.340;2023-05-23T00:51:54;5.67;;;3.93;;
16577;SDS011;8401;52.528;13.340;2023-05-23T00:54:22;5.47;;;3.83;;
16577;SDS011;8401;52.528;13.340;2023-05-23T00:56:51;5.50;;;3.80;;
16577;SDS011;8401;52.528;13.340;2023-05-23T00:59:17;5.47;;;4.33;;
16577;SDS011;8401;52.528;13.340;2023-05-23T01:01:45;5.40;;;4.40;;
16577;SDS011;8401;52.528;13.340;2023-05-23T01:04:12;6.90;;;3.87;;
16577;SDS011;8401;52.528;13.340;2023-05-23T01:06:38;6.73;;;3.73;;
16577;SDS011;8401;52.528;13.340;2023-05-23T01:09:04;7.53;;;4.20;;
16577;SDS011;8401;52.528;13.340;2023-05-23T01:11:35;9.43;;;3.90;;
16577;SDS011;8401;52.528;13.340;2023-05-23T01:14:22;4.73;;;4.03;;
16577;SDS011;8401;52.528;13.340;2023-05-23T01:17:14;5.67;;;3.57;;
16577;SDS011;8401;52.528;13.340;2023-05-23T01:19:54;5.50;;;4.00;;
16577;SDS011;8401;52.528;13.340;2023-05-23T01:25:16;4.67;;;3.57;;
16577;SDS011;8401;52.528;13.340;2023-05-23T01:27:52;4.90;;;3.93;;
16577;SDS011;8401;52.528;13.340;2023-05-23T01:30:23;5.83;;;4.13;;
16577;SDS011;8401;52.528;13.340;2023-05-23T01:32:51;7.23;;;4.07;;
16577;SDS011;8401;52.528;13.340;2023-05-23T01:35:21;4.03;;;3.63;;
16577;SDS011;8401;52.528;13.340;2023-05-23T01:37:50;5.10;;;3.63;;
16577;SDS011;8401;52.528;13.340;2023-05-23T01:40:20;5.27;;;3.93;;
16577;SDS011;8401;52.528;13.340;2023-05-23T01:42:48;4.57;;;3.30;;
16577;SDS011;8401;52.528;13.340;2023-05-23T01:45:15;5.60;;;3.50;;
16577;SDS011;8401;52.528;13.340;2023-05-23T01:47:41;7.33;;;3.93;;
16577;SDS011;8401;52.528;13.340;2023-05-23T01:50:09;4.70;;;3.87;;
16577;SDS011;8401;52.528;13.340;2023-05-23T01:52:35;5.17;;;4.07;;
16577;SDS011;8401;52.528;13.340;2023-05-23T01:55:02;7.43;;;3.90;;
16577;SDS011;8401;52.528;13.340;2023-05-23T01:57:34;4.87;;;3.83;;
16577;SDS011;8401;52.528;13.340;2023-05-23T02:00:01;9.50;;;3.67;;
16577;SDS011;8401;52.528;13.340;2023-05-23T02:02:31;5.87;;;4.00;;
16577;SDS011;8401;52.528;13.340;2023-05-23T02:04:58;6.97;;;4.17;;
16577;SDS011;8401;52.528;13.340;2023-05-23T02:07:23;5.60;;;3.73;;
16577;SDS011;8401;52.528;13.340;2023-05-23T02:09:49;8.23;;;4.03;;
16577;SDS011;8401;52.528;13.340;2023-05-23T02:12:15;4.93;;;4.00;;
16577;SDS011;8401;52.528;13.340;2023-05-23T02:14:40;6.47;;;4.03;;
16577;SDS011;8401;52.528;13.340;2023-05-23T02:17:06;5.73;;;4.27;;
16577;SDS011;8401;52.528;13.340;2023-05-23T02:19:34;5.00;;;4.10;;
16577;SDS011;8401;52.528;13.340;2023-05-23T02:22:00;5.73;;;4.13;;
16577;SDS011;8401;52.528;13.340;2023-05-23T02:24:26;7.07;;;4.23;;
16577;SDS011;8401;52.528;13.340;2023-05-23T02:26:52;6.10;;;4.37;;
16577;SDS011;8401;52.528;13.340;2023-05-23T02:29:17;5.97;;;3.93;;
16577;SDS011;8401;52.528;13.340;2023-05-23T02:31:43;7.53;;;4.00;;
16577;SDS011;8401;52.528;13.340;2023-05-23T02:34:09;7.07;;;4.07;;
16577;SDS011;8401;52.528;13.340;2023-05-23T02:36:35;6.10;;;4.13;;
16577;SDS011;8401;52.528;13.340;2023-05-23T02:39:01;5.43;;;4.20;;
16577;SDS011;8401;52.528;13.340;2023-05-23T02:41:30;4.60;;;3.73;;
16577;SDS011;8401;52.528;13.340;2023-05-23T02:43:55;5.63;;;4.33;;
16577;SDS011;8401;52.528;13.340;2023-05-23T02:46:22;7.07;;;4.57;;
16577;SDS011;8401;52.528;13.340;2023-05-23T02:48:47;6.60;;;4.17;;
16577;SDS011;8401;52.528;13.340;2023-05-23T02:51:13;5.80;;;4.53;;
16577;SDS011;8401;52.528;13.340;2023-05-23T02:53:38;5.70;;;3.97;;
16577;SDS011;8401;52.528;13.340;2023-05-23T02:56:05;9.23;;;4.67;;
16577;SDS011;8401;52.528;13.340;2023-05-23T02:58:32;7.27;;;4.67;;
16577;SDS011;8401;52.528;13.340;2023-05-23T03:01:00;4.90;;;3.97;;
16577;SDS011;8401;52.528;13.340;2023-05-23T03:03:26;5.33;;;4.07;;
16577;SDS011;8401;52.528;13.340;2023-05-23T03:05:52;5.23;;;4.03;;
16577;SDS011;8401;52.528;13.340;2023-05-23T03:08:18;6.23;;;4.30;;
16577;SDS011;8401;52.528;13.340;2023-05-23T03:10:44;6.40;;;4.43;;
16577;SDS011;8401;52.528;13.340;2023-05-23T03:13:10;9.03;;;4.83;;
16577;SDS011;8401;52.528;13.340;2023-05-23T03:15:35;7.33;;;4.70;;
16577;SDS011;8401;52.528;13.340;2023-05-23T03:18:01;4.90;;;4.23;;
16577;SDS011;8401;52.528;13.340;2023-05-23T03:20:27;8.13;;;4.77;;
16577;SDS011;8401;52.528;13.340;2023-05-23T03:22:52;6.37;;;4.47;;
16577;SDS011;8401;52.528;13.340;2023-05-23T03:25:18;5.17;;;4.47;;
16577;SDS011;8401;52.528;13.340;2023-05-23T03:27:44;6.50;;;5.03;;
16577;SDS011;8401;52.528;13.340;2023-05-23T03:30:09;7.23;;;4.70;;
16577;SDS011;8401;52.528;13.340;2023-05-23T03:32:35;6.13;;;4.50;;
16577;SDS011;8401;52.528;13.340;2023-05-23T03:35:01;7.03;;;4.50;;
16577;SDS011;8401;52.528;13.340;2023-05-23T03:37:27;9.83;;;5.03;;
16577;SDS011;8401;52.528;13.340;2023-05-23T03:39:52;6.43;;;4.93;;
16577;SDS011;8401;52.528;13.340;2023-05-23T03:42:18;5.97;;;4.80;;
16577;SDS011;8401;52.528;13.340;2023-05-23T03:44:43;6.17;;;4.70;;
16577;SDS011;8401;52.528;13.340;2023-05-23T03:47:09;5.90;;;4.13;;
16577;SDS011;8401;52.528;13.340;2023-05-23T03:49:35;5.97;;;5.10;;
16577;SDS011;8401;52.528;13.340;2023-05-23T03:52:00;7.07;;;4.77;;
16577;SDS011;8401;52.528;13.340;2023-05-23T03:54:26;8.37;;;4.97;;
16577;SDS011;8401;52.528;13.340;2023-05-23T03:56:52;6.33;;;4.67;;
16577;SDS011;8401;52.528;13.340;2023-05-23T03:59:17;9.53;;;5.43;;
16577;SDS011;8401;52.528;13.340;2023-05-23T04:01:43;7.17;;;5.37;;
16577;SDS011;8401;52.528;13.340;2023-05-23T04:04:08;6.13;;;4.97;;
16577;SDS011;8401;52.528;13.340;2023-05-23T04:06:34;6.23;;;4.70;;
16577;SDS011;8401;52.528;13.340;2023-05-23T04:09:00;7.07;;;4.87;;
16577;SDS011;8401;52.528;13.340;2023-05-23T04:11:27;8.70;;;5.30;;
16577;SDS011;8401;52.528;13.340;2023-05-23T04:13:52;6.03;;;4.80;;
16577;SDS011;8401;52.528;13.340;2023-05-23T04:16:18;9.47;;;5.53;;
16577;SDS011;8401;52.528;13.340;2023-05-23T04:18:46;5.63;;;4.57;;
16577;SDS011;8401;52.528;13.340;2023-05-23T04:21:12;6.00;;;5.33;;
16577;SDS011;8401;52.528;13.340;2023-05-23T04:23:38;6.93;;;4.90;;
16577;SDS011;8401;52.528;13.340;2023-05-23T04:26:03;6.03;;;4.90;;
16577;SDS011;8401;52.528;13.340;2023-05-23T04:28:29;7.27;;;5.40;;
16577;SDS011;8401;52.528;13.340;2023-05-23T04:30:55;8.37;;;4.93;;
16577;SDS011;8401;52.528;13.340;2023-05-23T04:33:22;10.63;;;5.57;;
16577;SDS011;8401;52.528;13.340;2023-05-23T04:35:48;7.53;;;4.80;;
16577;SDS011;8401;52.528;13.340;2023-05-23T04:38:14;7.60;;;5.10;;
16577;SDS011;8401;52.528;13.340;2023-05-23T04:40:39;8.37;;;5.00;;
16577;SDS011;8401;52.528;13.340;2023-05-23T04:43:05;6.70;;;4.87;;
16577;SDS011;8401;52.528;13.340;2023-05-23T04:45:33;8.87;;;5.37;;
16577;SDS011;8401;52.528;13.340;2023-05-23T04:47:58;7.93;;;5.13;;
16577;SDS011;8401;52.528;13.340;2023-05-23T04:50:24;6.43;;;4.87;;
16577;SDS011;8401;52.528;13.340;2023-05-23T04:52:52;6.63;;;4.60;;
16577;SDS011;8401;52.528;13.340;2023-05-23T04:55:18;8.53;;;5.37;;
16577;SDS011;8401;52.528;13.340;2023-05-23T04:57:44;5.10;;;4.60;;
16577;SDS011;8401;52.528;13.340;2023-05-23T05:00:10;7.10;;;5.23;;
16577;SDS011;8401;52.528;13.340;2023-05-23T05:02:37;8.60;;;4.80;;
16577;SDS011;8401;52.528;13.340;2023-05-23T05:05:03;7.77;;;5.27;;
16577;SDS011;8401;52.528;13.340;2023-05-23T05:07:29;9.53;;;5.37;;
16577;SDS011;8401;52.528;13.340;2023-05-23T05:09:55;9.67;;;5.73;;
16577;SDS011;8401;52.528;13.340;2023-05-23T05:12:21;7.80;;;5.23;;
16577;SDS011;8401;52.528;13.340;2023-05-23T05:14:46;6.87;;;5.13;;
16577;SDS011;8401;52.528;13.340;2023-05-23T05:17:12;6.13;;;4.83;;
16577;SDS011;8401;52.528;13.340;2023-05-23T05:19:38;8.80;;;5.27;;
16577;SDS011;8401;52.528;13.340;2023-05-23T05:22:03;7.97;;;4.97;;
16577;SDS011;8401;52.528;13.340;2023-05-23T05:24:29;6.83;;;5.20;;
16577;SDS011;8401;52.528;13.340;2023-05-23T05:26:56;7.60;;;5.43;;
16577;SDS011;8401;52.528;13.340;2023-05-23T05:29:22;8.37;;;4.93;;
16577;SDS011;8401;52.528;13.340;2023-05-23T05:31:48;7.77;;;5.50;;
16577;SDS011;8401;52.528;13.340;2023-05-23T05:34:13;7.03;;;5.00;;
16577;SDS011;8401;52.528;13.340;2023-05-23T05:36:39;7.33;;;5.03;;
16577;SDS011;8401;52.528;13.340;2023-05-23T05:39:12;6.63;;;5.60;;
16577;SDS011;8401;52.528;13.340;2023-05-23T05:41:39;6.40;;;5.43;;
16577;SDS011;8401;52.528;13.340;2023-05-23T05:44:05;7.87;;;5.03;;
16577;SDS011;8401;52.528;13.340;2023-05-23T05:46:31;8.77;;;5.67;;
16577;SDS011;8401;52.528;13.340;2023-05-23T05:48:57;9.20;;;5.43;;
16577;SDS011;8401;52.528;13.340;2023-05-23T05:51:22;8.57;;;5.90;;
16577;SDS011;8401;52.528;13.340;2023-05-23T05:53:48;12.70;;;5.87;;
16577;SDS011;8401;52.528;13.340;2023-05-23T05:56:14;7.13;;;5.43;;
16577;SDS011;8401;52.528;13.340;2023-05-23T05:58:40;11.67;;;5.70;;
16577;SDS011;8401;52.528;13.340;2023-05-23T06:01:05;7.53;;;5.27;;
16577;SDS011;8401;52.528;13.340;2023-05-23T06:03:31;12.00;;;5.43;;
16577;SDS011;8401;52.528;13.340;2023-05-23T06:05:58;8.63;;;5.50;;
16577;SDS011;8401;52.528;13.340;2023-05-23T06:08:23;10.80;;;5.43;;
16577;SDS011;8401;52.528;13.340;2023-05-23T06:10:49;10.07;;;5.77;;
16577;SDS011;8401;52.528;13.340;2023-05-23T06:13:15;7.70;;;5.37;;
16577;SDS011;8401;52.528;13.340;2023-05-23T06:15:42;10.77;;;5.17;;
16577;SDS011;8401;52.528;13.340;2023-05-23T06:18:07;8.83;;;5.10;;
16577;SDS011;8401;52.528;13.340;2023-05-23T06:20:33;10.57;;;5.27;;
16577;SDS011;8401;52.528;13.340;2023-05-23T06:22:59;9.53;;;5.17;;
16577;SDS011;8401;52.528;13.340;2023-05-23T06:25:25;9.60;;;5.83;;
16577;SDS011;8401;52.528;13.340;2023-05-23T06:27:51;9.07;;;5.70;;
16577;SDS011;8401;52.528;13.340;2023-05-23T06:30:17;7.33;;;5.40;;
16577;SDS011;8401;52.528;13.340;2023-05-23T06:32:42;8.80;;;5.67;;
16577;SDS011;8401;52.528;13.340;2023-05-23T06:35:08;11.23;;;5.63;;
16577;SDS011;8401;52.528;13.340;2023-05-23T06:37:34;7.47;;;5.60;;
16577;SDS011;8401;52.528;13.340;2023-05-23T06:40:00;11.37;;;6.10;;
16577;SDS011;8401;52.528;13.340;2023-05-23T06:42:25;12.30;;;5.80;;
16577;SDS011;8401;52.528;13.340;2023-05-23T06:44:51;7.87;;;5.80;;
16577;SDS011;8401;52.528;13.340;2023-05-23T06:47:17;9.50;;;5.83;;
16577;SDS011;8401;52.528;13.340;2023-05-23T06:49:42;9.67;;;5.90;;
16577;SDS011;8401;52.528;13.340;2023-05-23T06:52:09;14.63;;;5.90;;
16577;SDS011;8401;52.528;13.340;2023-05-23T06:54:35;12.33;;;5.80;;
16577;SDS011;8401;52.528;13.340;2023-05-23T06:57:01;10.30;;;6.10;;
16577;SDS011;8401;52.528;13.340;2023-05-23T06:59:26;13.13;;;6.17;;
16577;SDS011;8401;52.528;13.340;2023-05-23T07:01:52;6.80;;;5.17;;
16577;SDS011;8401;52.528;13.340;2023-05-23T07:04:18;12.73;;;6.37;;
16577;SDS011;8401;52.528;13.340;2023-05-23T07:06:43;7.60;;;6.00;;
16577;SDS011;8401;52.528;13.340;2023-05-23T07:09:09;8.27;;;5.40;;
16577;SDS011;8401;52.528;13.340;2023-05-23T07:11:35;9.85;;;6.78;;
16577;SDS011;8401;52.528;13.340;2023-05-23T07:14:03;9.93;;;6.37;;
16577;SDS011;8401;52.528;13.340;2023-05-23T07:16:30;8.07;;;5.60;;
16577;SDS011;8401;52.528;13.340;2023-05-23T07:18:55;16.00;;;6.30;;
16577;SDS011;8401;52.528;13.340;2023-05-23T07:21:21;13.25;;;6.13;;
16577;SDS011;8401;52.528;13.340;2023-05-23T07:23:46;10.40;;;6.15;;
16577;SDS011;8401;52.528;13.340;2023-05-23T07:26:12;12.63;;;5.72;;
16577;SDS011;8401;52.528;13.340;2023-05-23T07:28:38;14.82;;;6.55;;
16577;SDS011;8401;52.528;13.340;2023-05-23T07:31:03;9.55;;;5.95;;
16577;SDS011;8401;52.528;13.340;2023-05-23T07:33:29;12.23;;;6.45;;
16577;SDS011;8401;52.528;13.340;2023-05-23T07:35:55;10.90;;;6.10;;
16577;SDS011;8401;52.528;13.340;2023-05-23T07:38:20;8.40;;;5.43;;
16577;SDS011;8401;52.528;13.340;2023-05-23T07:40:46;6.63;;;5.40;;
16577;SDS011;8401;52.528;13.340;2023-05-23T07:43:12;9.73;;;5.63;;
16577;SDS011;8401;52.528;13.340;2023-05-23T07:45:37;8.88;;;5.43;;
16577;SDS011;8401;52.528;13.340;2023-05-23T07:48:03;7.03;;;5.63;;
16577;SDS011;8401;52.528;13.340;2023-05-23T07:50:28;7.75;;;5.32;;
16577;SDS011;8401;52.528;13.340;2023-05-23T07:52:55;6.78;;;5.22;;
16577;SDS011;8401;52.528;13.340;2023-05-23T07:55:21;9.55;;;5.75;;
16577;SDS011;8401;52.528;13.340;2023-05-23T07:57:46;8.00;;;5.80;;
16577;SDS011;8401;52.528;13.340;2023-05-23T08:00:12;10.13;;;5.47;;
16577;SDS011;8401;52.528;13.340;2023-05-23T08:02:38;8.65;;;5.80;;
16577;SDS011;8401;52.528;13.340;2023-05-23T08:05:04;6.50;;;5.07;;
16577;SDS011;8401;52.528;13.340;2023-05-23T08:07:31;8.82;;;4.78;;
16577;SDS011;8401;52.528;13.340;2023-05-23T08:09:56;6.47;;;4.60;;
16577;SDS011;8401;52.528;13.340;2023-05-23T08:12:22;9.77;;;5.63;;
16577;SDS011;8401;52.528;13.340;2023-05-23T08:14:47;8.35;;;5.85;;
16577;SDS011;8401;52.528;13.340;2023-05-23T08:17:13;8.95;;;5.57;;
16577;SDS011;8401;52.528;13.340;2023-05-23T08:19:39;11.18;;;5.20;;
16577;SDS011;8401;52.528;13.340;2023-05-23T08:22:05;8.25;;;5.25;;
16577;SDS011;8401;52.528;13.340;2023-05-23T08:24:31;6.60;;;5.45;;
16577;SDS011;8401;52.528;13.340;2023-05-23T08:26:58;8.10;;;5.30;;
16577;SDS011;8401;52.528;13.340;2023-05-23T08:29:24;9.48;;;6.43;;
16577;SDS011;8401;52.528;13.340;2023-05-23T08:31:50;9.13;;;5.60;;
16577;SDS011;8401;52.528;13.340;2023-05-23T08:34:15;5.57;;;4.82;;
16577;SDS011;8401;52.528;13.340;2023-05-23T08:36:41;7.07;;;5.88;;
16577;SDS011;8401;52.528;13.340;2023-05-23T08:39:07;7.05;;;5.13;;
16577;SDS011;8401;52.528;13.340;2023-05-23T08:41:33;6.60;;;5.90;;
16577;SDS011;8401;52.528;13.340;2023-05-23T08:43:59;10.32;;;5.57;;
16577;SDS011;8401;52.528;13.340;2023-05-23T08:46:25;13.45;;;6.20;;
16577;SDS011;8401;52.528;13.340;2023-05-23T08:48:54;6.43;;;5.45;;
16577;SDS011;8401;52.528;13.340;2023-05-23T08:51:21;7.93;;;5.85;;
16577;SDS011;8401;52.528;13.340;2023-05-23T08:53:48;7.05;;;5.70;;
16577;SDS011;8401;52.528;13.340;2023-05-23T08:56:15;9.73;;;5.68;;
16577;SDS011;8401;52.528;13.340;2023-05-23T08:58:41;6.75;;;5.35;;
16577;SDS011;8401;52.528;13.340;2023-05-23T09:01:07;7.07;;;5.40;;
16577;SDS011;8401;52.528;13.340;2023-05-23T09:03:34;7.25;;;6.43;;
16577;SDS011;8401;52.528;13.340;2023-05-23T09:06:02;14.43;;;7.53;;
16577;SDS011;8401;52.528;13.340;2023-05-23T09:08:30;8.77;;;6.40;;
16577;SDS011;8401;52.528;13.340;2023-05-23T09:10:56;10.50;;;6.35;;
16577;SDS011;8401;52.528;13.340;2023-05-23T09:13:22;7.47;;;6.50;;
16577;SDS011;8401;52.528;13.340;2023-05-23T09:15:56;7.65;;;6.82;;
16577;SDS011;8401;52.528;13.340;2023-05-23T09:18:27;8.50;;;6.90;;
16577;SDS011;8401;52.528;13.340;2023-05-23T09:21:04;10.93;;;6.82;;
16577;SDS011;8401;52.528;13.340;2023-05-23T09:23:33;12.82;;;6.90;;
16577;SDS011;8401;52.528;13.340;2023-05-23T09:26:03;7.50;;;6.75;;
16577;SDS011;8401;52.528;13.340;2023-05-23T09:28:30;11.52;;;6.25;;
16577;SDS011;8401;52.528;13.340;2023-05-23T09:31:03;7.95;;;6.25;;
16577;SDS011;8401;52.528;13.340;2023-05-23T09:33:46;8.02;;;6.63;;
16577;SDS011;8401;52.528;13.340;2023-05-23T09:36:16;8.35;;;6.43;;
16577;SDS011;8401;52.528;13.340;2023-05-23T09:38:43;6.95;;;6.07;;
16577;SDS011;8401;52.528;13.340;2023-05-23T09:41:10;7.57;;;6.78;;
16577;SDS011;8401;52.528;13.340;2023-05-23T09:43:37;10.35;;;6.65;;
16577;SDS011;8401;52.528;13.340;2023-05-23T09:46:08;9.05;;;6.50;;
16577;SDS011;8401;52.528;13.340;2023-05-23T09:48:35;9.55;;;7.25;;
16577;SDS011;8401;52.528;13.340;2023-05-23T09:51:08;8.30;;;6.60;;
16577;SDS011;8401;52.528;13.340;2023-05-23T09:53:34;7.18;;;6.35;;
16577;SDS011;8401;52.528;13.340;2023-05-23T09:56:01;12.88;;;6.95;;
16577;SDS011;8401;52.528;13.340;2023-05-23T09:58:27;9.45;;;6.80;;
16577;SDS011;8401;52.528;13.340;2023-05-23T10:00:54;7.97;;;5.90;;
16577;SDS011;8401;52.528;13.340;2023-05-23T10:03:26;6.60;;;5.97;;
16577;SDS011;8401;52.528;13.340;2023-05-23T10:06:01;8.15;;;5.95;;
16577;SDS011;8401;52.528;13.340;2023-05-23T10:08:38;7.05;;;6.00;;
16577;SDS011;8401;52.528;13.340;2023-05-23T10:13:43;7.20;;;6.47;;
16577;SDS011;8401;52.528;13.340;2023-05-23T10:16:22;8.77;;;7.28;;
16577;SDS011;8401;52.528;13.340;2023-05-23T10:19:24;7.70;;;6.90;;
16577;SDS011;8401;52.528;13.340;2023-05-23T10:22:00;7.80;;;6.90;;
16577;SDS011;8401;52.528;13.340;2023-05-23T10:24:27;8.88;;;7.10;;
16577;SDS011;8401;52.528;13.340;2023-05-23T10:26:53;9.70;;;8.30;;
16577;SDS011;8401;52.528;13.340;2023-05-23T10:29:23;9.35;;;7.82;;
16577;SDS011;8401;52.528;13.340;2023-05-23T10:31:50;8.25;;;7.53;;
16577;SDS011;8401;52.528;13.340;2023-05-23T10:34:31;8.68;;;7.57;;
16577;SDS011;8401;52.528;13.340;2023-05-23T10:37:39;9.80;;;8.90;;
16577;SDS011;8401;52.528;13.340;2023-05-23T10:45:18;10.85;;;9.75;;
16577;SDS011;8401;52.528;13.340;2023-05-23T10:47:49;12.85;;;10.40;;
16577;SDS011;8401;52.528;13.340;2023-05-23T10:50:30;14.25;;;10.98;;
16577;SDS011;8401;52.528;13.340;2023-05-23T10:52:57;12.75;;;11.45;;
16577;SDS011;8401;52.528;13.340;2023-05-23T10:55:31;14.25;;;12.43;;
16577;SDS011;8401;52.528;13.340;2023-05-23T10:58:08;12.77;;;11.48;;
16577;SDS011;8401;52.528;13.340;2023-05-23T11:00:37;14.60;;;11.70;;
16577;SDS011;8401;52.528;13.340;2023-05-23T11:03:04;17.30;;;13.27;;
16577;SDS011;8401;52.528;13.340;2023-05-23T11:05:33;19.15;;;13.98;;
16577;SDS011;8401;52.528;13.340;2023-05-23T11:10:50;16.63;;;14.90;;
16577;SDS011;8401;52.528;13.340;2023-05-23T11:13:22;18.23;;;15.77;;
16577;SDS011;8401;52.528;13.340;2023-05-23T11:15:48;17.05;;;15.23;;
16577;SDS011;8401;52.528;13.340;2023-05-23T11:18:21;18.20;;;14.38;;
16577;SDS011;8401;52.528;13.340;2023-05-23T11:20:58;17.38;;;15.40;;
16577;SDS011;8401;52.528;13.340;2023-05-23T11:23:38;17.23;;;15.35;;
16577;SDS011;8401;52.528;13.340;2023-05-23T11:26:04;17.40;;;15.52;;
16577;SDS011;8401;52.528;13.340;2023-05-23T11:28:56;18.98;;;16.60;;
16577;SDS011;8401;52.528;13.340;2023-05-23T11:31:24;19.42;;;15.98;;
16577;SDS011;8401;52.528;13.340;2023-05-23T11:33:50;20.83;;;16.65;;
16577;SDS011;8401;52.528;13.340;2023-05-23T11:36:16;17.50;;;15.60;;
16577;SDS011;8401;52.528;13.340;2023-05-23T11:38:42;21.27;;;15.27;;
16577;SDS011;8401;52.528;13.340;2023-05-23T11:41:08;19.30;;;16.27;;
16577;SDS011;8401;52.528;13.340;2023-05-23T11:43:33;17.92;;;15.73;;
16577;SDS011;8401;52.528;13.340;2023-05-23T11:46:06;17.83;;;15.95;;
16577;SDS011;8401;52.528;13.340;2023-05-23T11:48:32;21.75;;;16.02;;
16577;SDS011;8401;52.528;13.340;2023-05-23T11:50:58;19.20;;;15.68;;
16577;SDS011;8401;52.528;13.340;2023-05-23T11:53:25;23.20;;;17.05;;
16577;SDS011;8401;52.528;13.340;2023-05-23T11:55:55;18.10;;;15.35;;
16577;SDS011;8401;52.528;13.340;2023-05-23T11:58:29;21.65;;;17.77;;
16577;SDS011;8401;52.528;13.340;2023-05-23T12:01:06;19.30;;;17.20;;
16577;SDS011;8401;52.528;13.340;2023-05-23T12:03:33;19.00;;;15.45;;
16577;SDS011;8401;52.528;13.340;2023-05-23T12:06:02;19.48;;;15.95;;
16577;SDS011;8401;52.528;13.340;2023-05-23T12:08:27;19.20;;;15.93;;
16577;SDS011;8401;52.528;13.340;2023-05-23T12:10:57;18.77;;;16.17;;
16577;SDS011;8401;52.528;13.340;2023-05-23T12:13:24;19.13;;;15.80;;
16577;SDS011;8401;52.528;13.340;2023-05-23T12:15:59;21.17;;;16.10;;
16577;SDS011;8401;52.528;13.340;2023-05-23T12:18:30;20.60;;;17.15;;
16577;SDS011;8401;52.528;13.340;2023-05-23T12:21:02;21.27;;;16.63;;
16577;SDS011;8401;52.528;13.340;2023-05-23T12:23:31;18.90;;;16.27;;
16577;SDS011;8401;52.528;13.340;2023-05-23T12:25:58;19.85;;;15.43;;
16577;SDS011;8401;52.528;13.340;2023-05-23T12:28:33;18.00;;;16.10;;
16577;SDS011;8401;52.528;13.340;2023-05-23T12:31:16;20.30;;;16.55;;
16577;SDS011;8401;52.528;13.340;2023-05-23T12:33:44;21.57;;;17.33;;
16577;SDS011;8401;52.528;13.340;2023-05-23T12:36:11;19.40;;;16.50;;
16577;SDS011;8401;52.528;13.340;2023-05-23T12:38:38;19.03;;;15.17;;
16577;SDS011;8401;52.528;13.340;2023-05-23T12:41:17;19.57;;;15.40;;
16577;SDS011;8401;52.528;13.340;2023-05-23T12:43:50;16.67;;;14.10;;
16577;SDS011;8401;52.528;13.340;2023-05-23T12:46:18;16.10;;;13.53;;
16577;SDS011;8401;52.528;13.340;2023-05-23T12:48:50;15.40;;;13.60;;
16577;SDS011;8401;52.528;13.340;2023-05-23T12:51:17;14.63;;;12.27;;
16577;SDS011;8401;52.528;13.340;2023-05-23T12:53:43;15.60;;;12.52;;
16577;SDS011;8401;52.528;13.340;2023-05-23T12:56:09;14.23;;;12.60;;
16577;SDS011;8401;52.528;13.340;2023-05-23T12:58:35;14.32;;;12.73;;
16577;SDS011;8401;52.528;13.340;2023-05-23T13:01:01;14.90;;;12.37;;
16577;SDS011;8401;52.528;13.340;2023-05-23T13:03:27;14.48;;;12.43;;
16577;SDS011;8401;52.528;13.340;2023-05-23T13:05:55;15.65;;;12.27;;
16577;SDS011;8401;52.528;13.340;2023-05-23T13:08:21;16.97;;;13.83;;
16577;SDS011;8401;52.528;13.340;2023-05-23T13:10:52;16.67;;;14.10;;
16577;SDS011;8401;52.528;13.340;2023-05-23T13:13:18;18.42;;;13.82;;
16577;SDS011;8401;52.528;13.340;2023-05-23T13:15:43;17.13;;;14.60;;
16577;SDS011;8401;52.528;13.340;2023-05-23T13:18:09;18.27;;;16.20;;
16577;SDS011;8401;52.528;13.340;2023-05-23T13:20:35;18.43;;;15.83;;
16577;SDS011;8401;52.528;13.340;2023-05-23T13:23:01;19.27;;;16.23;;
16577;SDS011;8401;52.528;13.340;2023-05-23T13:25:27;22.27;;;17.33;;
16577;SDS011;8401;52.528;13.340;2023-05-23T13:27:53;19.80;;;16.13;;
16577;SDS011;8401;52.528;13.340;2023-05-23T13:30:19;19.23;;;15.60;;
16577;SDS011;8401;52.528;13.340;2023-05-23T13:32:46;21.57;;;16.83;;
16577;SDS011;8401;52.528;13.340;2023-05-23T13:35:12;21.30;;;15.77;;
16577;SDS011;8401;52.528;13.340;2023-05-23T13:37:37;17.77;;;14.67;;
16577;SDS011;8401;52.528;13.340;2023-05-23T13:40:03;20.53;;;15.57;;
16577;SDS011;8401;52.528;13.340;2023-05-23T13:42:30;19.10;;;14.07;;
16577;SDS011;8401;52.528;13.340;2023-05-23T13:44:56;18.20;;;14.17;;
16577;SDS011;8401;52.528;13.340;2023-05-23T13:47:21;16.67;;;13.50;;
16577;SDS011;8401;52.528;13.340;2023-05-23T13:49:47;17.20;;;13.30;;
16577;SDS011;8401;52.528;13.340;2023-05-23T13:52:13;17.40;;;14.17;;
16577;SDS011;8401;52.528;13.340;2023-05-23T13:54:39;19.53;;;13.70;;
16577;SDS011;8401;52.528;13.340;2023-05-23T13:57:05;21.43;;;15.83;;
16577;SDS011;8401;52.528;13.340;2023-05-23T13:59:31;20.93;;;15.77;;
16577;SDS011;8401;52.528;13.340;2023-05-23T14:01:57;21.70;;;16.30;;
16577;SDS011;8401;52.528;13.340;2023-05-23T14:04:23;21.70;;;16.07;;
16577;SDS011;8401;52.528;13.340;2023-05-23T14:06:49;19.27;;;14.60;;
16577;SDS011;8401;52.528;13.340;2023-05-23T14:09:15;23.23;;;15.40;;
16577;SDS011;8401;52.528;13.340;2023-05-23T14:11:41;18.03;;;15.17;;
16577;SDS011;8401;52.528;13.340;2023-05-23T14:14:08;21.67;;;16.20;;
16577;SDS011;8401;52.528;13.340;2023-05-23T14:16:33;21.87;;;16.00;;
16577;SDS011;8401;52.528;13.340;2023-05-23T14:18:59;20.00;;;16.03;;
16577;SDS011;8401;52.528;13.340;2023-05-23T14:21:25;22.80;;;16.87;;
16577;SDS011;8401;52.528;13.340;2023-05-23T14:23:52;21.73;;;16.37;;
16577;SDS011;8401;52.528;13.340;2023-05-23T14:26:18;20.80;;;16.13;;
16577;SDS011;8401;52.528;13.340;2023-05-23T14:28:44;23.43;;;16.03;;
16577;SDS011;8401;52.528;13.340;2023-05-23T14:31:09;20.23;;;16.57;;
16577;SDS011;8401;52.528;13.340;2023-05-23T14:33:35;21.73;;;15.70;;
16577;SDS011;8401;52.528;13.340;2023-05-23T14:36:01;19.37;;;14.60;;
16577;SDS011;8401;52.528;13.340;2023-05-23T14:38:27;19.67;;;15.13;;
16577;SDS011;8401;52.528;13.340;2023-05-23T14:40:52;19.07;;;14.57;;
16577;SDS011;8401;52.528;13.340;2023-05-23T14:43:18;16.40;;;13.67;;
16577;SDS011;8401;52.528;13.340;2023-05-23T14:45:44;18.37;;;14.47;;
16577;SDS011;8401;52.528;13.340;2023-05-23T14:48:10;19.03;;;14.83;;
16577;SDS011;8401;52.528;13.340;2023-05-23T14:50:36;17.07;;;13.57;;
16577;SDS011;8401;52.528;13.340;2023-05-23T14:53:02;21.33;;;14.37;;